»·PEaware :: N303PW KSAN-KCRQ

N303PW :: KSAN-KCRQ

FLIGHT INFORMATION

Flight Status: Arrived
Operator: Privately registered:
United States
More flights under this callsign
Pilot: Paul W. (27512)
Aircraft: CESSNA 172 SKYHAWK
(C172)
More flights by this aircraft type
Origin: KSAN San Diego Intl-Lindbergh
United States
Destination: KCRQ McClellan-Palomar
United States
More flights between these airports :: More routes between these airports
Route:
File this flight plan on PilotEdge
Remarks:
Altitude:
(Current/Filed)
3,500ft
Speed:
(Current/Filed)
130kts
Departed: 10-Feb-20 08:04 PM
Arrived: 10-Feb-20 08:20 PM
Distance/Time
Traveled:
24nm/0:15
Distance/Time
To Go:
Arrived

Flight Plot

Page will automatically refresh every two minutes.


Map Options




Map Legend


Flown Route
Filed Route
Departure Airport
Arrival Airport
Navaid (VOR, NDB)
Fix

Horizontal Profiles

Position Reports

Time Latitude Longitude Heading Altitude Ground
Speed
10-Feb-20 19:44 32.732420 -117.176641 194 22ft 0kts
10-Feb-20 19:45 32.732420 -117.176641 194 22ft 0kts
10-Feb-20 19:46 32.732420 -117.176641 194 22ft 0kts
10-Feb-20 19:47 32.732420 -117.176641 194 22ft 0kts
10-Feb-20 19:48 32.732420 -117.176641 194 22ft 0kts
10-Feb-20 19:49 32.732420 -117.176641 194 22ft 0kts
10-Feb-20 19:50 32.732420 -117.176641 194 22ft 0kts
10-Feb-20 19:51 32.732420 -117.176641 194 22ft 0kts
10-Feb-20 19:52 32.732420 -117.176641 194 22ft 0kts
10-Feb-20 19:53 32.732420 -117.176641 194 22ft 0kts
10-Feb-20 19:54 32.732420 -117.176641 194 22ft 0kts
10-Feb-20 19:55 32.732420 -117.176641 194 22ft 0kts
10-Feb-20 19:56 32.732420 -117.176641 194 22ft 0kts
10-Feb-20 19:57 32.732420 -117.176641 194 22ft 0kts
10-Feb-20 19:58 32.732420 -117.176641 194 22ft 0kts
10-Feb-20 19:59 32.732420 -117.176641 194 22ft 0kts
10-Feb-20 20:00 32.731311 -117.176328 117 20ft 11kts
10-Feb-20 20:01 32.731045 -117.175639 123 21ft 0kts
10-Feb-20 20:02 32.731044 -117.175638 123 21ft 0kts
10-Feb-20 20:03 32.730254 -117.176524 283 20ft 45kts
10-Feb-20 20:04 32.736329 -117.199900 272 1074ft 69kts
10-Feb-20 20:05 32.751870 -117.218175 320 1576ft 92kts
10-Feb-20 20:06 32.776342 -117.239978 314 1462ft 111kts
10-Feb-20 20:07 32.801369 -117.263332 327 1724ft 117kts
10-Feb-20 20:08 32.833619 -117.268203 3 2403ft 121kts
10-Feb-20 20:09 32.871363 -117.267093 4 2426ft 143kts
10-Feb-20 20:10 32.908906 -117.280063 341 2487ft 140kts
10-Feb-20 20:11 32.946649 -117.294125 344 2487ft 147kts
10-Feb-20 20:12 32.983553 -117.305592 345 2389ft 120kts
10-Feb-20 20:13 33.017653 -117.317704 344 2028ft 115kts
10-Feb-20 20:14 33.049514 -117.330127 337 1688ft 102kts
10-Feb-20 20:15 33.073994 -117.318566 40 1589ft 99kts
10-Feb-20 20:16 33.096452 -117.296811 36 1293ft 113kts
10-Feb-20 20:17 33.117796 -117.279995 76 1331ft 91kts
10-Feb-20 20:18 33.127142 -117.258909 343 842ft 80kts
10-Feb-20 20:19 33.128696 -117.276923 258 335ft 38kts
10-Feb-20 20:20 33.127761 -117.277401 78 335ft 23kts
10-Feb-20 20:21 33.127650 -117.275137 357 335ft 7kts
10-Feb-20 20:22 33.127820 -117.275164 347 335ft 0kts
10-Feb-20 20:23 33.127820 -117.275164 347 335ft 0kts
10-Feb-20 20:24 33.127820 -117.275164 347 335ft 0kts
10-Feb-20 20:25 33.127820 -117.275164 347 335ft 0kts
10-Feb-20 20:26 33.127820 -117.275164 347 335ft 0kts
10-Feb-20 20:27 33.127820 -117.275164 347 335ft 0kts
10-Feb-20 20:28 33.127820 -117.275164 347 335ft 0kts
10-Feb-20 20:29 33.127820 -117.275164 347 335ft 0kts
10-Feb-20 20:30 33.127820 -117.275164 347 335ft 0kts
10-Feb-20 20:31 33.127820 -117.275164 347 335ft 0kts
10-Feb-20 20:32 33.127820 -117.275164 347 335ft 0kts
10-Feb-20 20:33 33.127820 -117.275164 347 335ft 0kts

Navigation Log

Ident Type
Flight plan parsing failed, navigation log unavailable